sensor_id;sensor_type;location;lat;lon;timestamp;pressure;altitude;pressure_sealevel;temperature;humidity
7480;BME280;3781;42.272;22.658;2023-03-23T00:00:52;94559.63;;;6.24;100.00
7480;BME280;3781;42.272;22.658;2023-03-23T00:03:19;94545.25;;;6.08;100.00
7480;BME280;3781;42.272;22.658;2023-03-23T00:05:46;94556.59;;;6.06;100.00
7480;BME280;3781;42.272;22.658;2023-03-23T00:08:17;94531.69;;;5.81;100.00
7480;BME280;3781;42.272;22.658;2023-03-23T00:10:48;94559.31;;;5.92;100.00
7480;BME280;3781;42.272;22.658;2023-03-23T00:13:14;94557.34;;;5.95;100.00
7480;BME280;3781;42.272;22.658;2023-03-23T00:15:44;94553.38;;;5.66;100.00
7480;BME280;3781;42.272;22.658;2023-03-23T00:18:14;94546.50;;;5.54;100.00
7480;BME280;3781;42.272;22.658;2023-03-23T00:20:47;94549.91;;;5.29;100.00
7480;BME280;3781;42.272;22.658;2023-03-23T00:23:14;94556.72;;;5.18;100.00
7480;BME280;3781;42.272;22.658;2023-03-23T00:25:46;94552.81;;;5.12;100.00
7480;BME280;3781;42.272;22.658;2023-03-23T00:28:14;94546.53;;;5.04;100.00
7480;BME280;3781;42.272;22.658;2023-03-23T00:30:41;94542.72;;;4.97;100.00
7480;BME280;3781;42.272;22.658;2023-03-23T00:33:10;94511.00;;;4.71;100.00
7480;BME280;3781;42.272;22.658;2023-03-23T00:35:38;94540.97;;;4.85;100.00
7480;BME280;3781;42.272;22.658;2023-03-23T00:38:05;94536.00;;;4.82;100.00
7480;BME280;3781;42.272;22.658;2023-03-23T00:40:32;94539.59;;;4.79;100.00
7480;BME280;3781;42.272;22.658;2023-03-23T00:43:02;94536.91;;;4.81;100.00
7480;BME280;3781;42.272;22.658;2023-03-23T00:45:30;94537.97;;;4.78;100.00
7480;BME280;3781;42.272;22.658;2023-03-23T00:47:57;94537.44;;;4.73;100.00
7480;BME280;3781;42.272;22.658;2023-03-23T00:50:27;94537.75;;;4.69;100.00
7480;BME280;3781;42.272;22.658;2023-03-23T00:52:54;94539.78;;;4.64;100.00
7480;BME280;3781;42.272;22.658;2023-03-23T00:55:22;94537.22;;;4.64;100.00
7480;BME280;3781;42.272;22.658;2023-03-23T00:57:49;94534.88;;;4.61;100.00
7480;BME280;3781;42.272;22.658;2023-03-23T01:00:18;94536.28;;;4.52;100.00
7480;BME280;3781;42.272;22.658;2023-03-23T01:02:45;94513.44;;;4.35;100.00
7480;BME280;3781;42.272;22.658;2023-03-23T01:05:12;94532.03;;;4.38;100.00
7480;BME280;3781;42.272;22.658;2023-03-23T01:07:40;94522.53;;;4.26;100.00
7480;BME280;3781;42.272;22.658;2023-03-23T01:10:10;94538.31;;;4.34;100.00
7480;BME280;3781;42.272;22.658;2023-03-23T01:12:37;94536.22;;;4.27;100.00
7480;BME280;3781;42.272;22.658;2023-03-23T01:15:05;94532.09;;;4.24;100.00
7480;BME280;3781;42.272;22.658;2023-03-23T01:17:34;94537.03;;;4.27;100.00
7480;BME280;3781;42.272;22.658;2023-03-23T01:20:01;94527.94;;;4.09;100.00
7480;BME280;3781;42.272;22.658;2023-03-23T01:22:32;94525.84;;;4.02;100.00
7480;BME280;3781;42.272;22.658;2023-03-23T01:24:59;94531.28;;;4.24;100.00
7480;BME280;3781;42.272;22.658;2023-03-23T01:27:25;94532.88;;;4.39;100.00
7480;BME280;3781;42.272;22.658;2023-03-23T01:29:52;94524.34;;;4.64;100.00
7480;BME280;3781;42.272;22.658;2023-03-23T01:32:19;94533.00;;;4.63;100.00
7480;BME280;3781;42.272;22.658;2023-03-23T01:34:47;94520.47;;;4.71;100.00
7480;BME280;3781;42.272;22.658;2023-03-23T01:37:14;94510.78;;;4.62;100.00
7480;BME280;3781;42.272;22.658;2023-03-23T01:39:41;94523.13;;;4.56;100.00
7480;BME280;3781;42.272;22.658;2023-03-23T01:42:08;94525.19;;;4.64;100.00
7480;BME280;3781;42.272;22.658;2023-03-23T01:50:45;94515.47;;;4.42;100.00
7480;BME280;3781;42.272;22.658;2023-03-23T01:53:15;94518.75;;;4.32;100.00
7480;BME280;3781;42.272;22.658;2023-03-23T01:55:44;94516.66;;;4.24;100.00
7480;BME280;3781;42.272;22.658;2023-03-23T01:58:14;94516.16;;;4.19;100.00
7480;BME280;3781;42.272;22.658;2023-03-23T02:00:41;94512.13;;;4.15;100.00
7480;BME280;3781;42.272;22.658;2023-03-23T02:03:09;94521.56;;;4.02;100.00
7480;BME280;3781;42.272;22.658;2023-03-23T02:05:42;94527.06;;;3.96;100.00
7480;BME280;3781;42.272;22.658;2023-03-23T02:08:10;94509.13;;;3.82;100.00
7480;BME280;3781;42.272;22.658;2023-03-23T02:10:38;94518.25;;;4.00;100.00
7480;BME280;3781;42.272;22.658;2023-03-23T02:13:07;94528.22;;;4.05;100.00
7480;BME280;3781;42.272;22.658;2023-03-23T02:15:45;94527.06;;;3.96;100.00
7480;BME280;3781;42.272;22.658;2023-03-23T02:18:27;94538.13;;;3.84;100.00
7480;BME280;3781;42.272;22.658;2023-03-23T02:21:20;94535.38;;;3.73;100.00
7480;BME280;3781;42.272;22.658;2023-03-23T02:24:08;94547.06;;;3.64;100.00
7480;BME280;3781;42.272;22.658;2023-03-23T02:26:48;94550.28;;;3.54;100.00
7480;BME280;3781;42.272;22.658;2023-03-23T02:29:43;94545.34;;;3.37;100.00
7480;BME280;3781;42.272;22.658;2023-03-23T02:32:27;94548.47;;;3.28;100.00
7480;BME280;3781;42.272;22.658;2023-03-23T02:35:05;94537.66;;;2.94;100.00
7480;BME280;3781;42.272;22.658;2023-03-23T02:37:37;94543.94;;;2.75;100.00
7480;BME280;3781;42.272;22.658;2023-03-23T02:40:09;94533.00;;;2.57;100.00
7480;BME280;3781;42.272;22.658;2023-03-23T02:42:39;94543.84;;;2.62;100.00
7480;BME280;3781;42.272;22.658;2023-03-23T02:45:10;94543.84;;;2.62;100.00
7480;BME280;3781;42.272;22.658;2023-03-23T02:47:38;94547.91;;;2.80;100.00
7480;BME280;3781;42.272;22.658;2023-03-23T02:50:11;94543.50;;;2.96;100.00
7480;BME280;3781;42.272;22.658;2023-03-23T02:52:41;94555.06;;;3.03;100.00
7480;BME280;3781;42.272;22.658;2023-03-23T02:55:09;94544.44;;;3.10;100.00
7480;BME280;3781;42.272;22.658;2023-03-23T02:57:39;94558.38;;;3.20;100.00
7480;BME280;3781;42.272;22.658;2023-03-23T03:00:07;94562.59;;;3.21;100.00
7480;BME280;3781;42.272;22.658;2023-03-23T03:02:38;94571.22;;;3.20;100.00
7480;BME280;3781;42.272;22.658;2023-03-23T03:05:17;94564.41;;;3.19;100.00
7480;BME280;3781;42.272;22.658;2023-03-23T03:08:00;94568.47;;;3.37;100.00
7480;BME280;3781;42.272;22.658;2023-03-23T03:10:31;94570.09;;;3.38;100.00
7480;BME280;3781;42.272;22.658;2023-03-23T03:13:05;94565.88;;;3.51;100.00
7480;BME280;3781;42.272;22.658;2023-03-23T03:15:40;94564.41;;;3.61;100.00
7480;BME280;3781;42.272;22.658;2023-03-23T03:18:13;94564.53;;;3.72;100.00
7480;BME280;3781;42.272;22.658;2023-03-23T03:20:45;94579.94;;;3.86;100.00
7480;BME280;3781;42.272;22.658;2023-03-23T03:23:14;94567.53;;;3.24;100.00
7480;BME280;3781;42.272;22.658;2023-03-23T03:25:43;94572.19;;;2.59;100.00
7480;BME280;3781;42.272;22.658;2023-03-23T03:28:16;94565.78;;;2.22;100.00
7480;BME280;3781;42.272;22.658;2023-03-23T03:30:47;94541.78;;;2.39;100.00
7480;BME280;3781;42.272;22.658;2023-03-23T03:33:16;94572.59;;;2.08;100.00
7480;BME280;3781;42.272;22.658;2023-03-23T03:35:48;94565.75;;;1.93;100.00
7480;BME280;3781;42.272;22.658;2023-03-23T03:38:15;94568.03;;;2.13;100.00
7480;BME280;3781;42.272;22.658;2023-03-23T03:40:41;94569.84;;;2.56;100.00
7480;BME280;3781;42.272;22.658;2023-03-23T03:43:08;94579.03;;;2.45;100.00
7480;BME280;3781;42.272;22.658;2023-03-23T03:45:35;94581.84;;;2.40;100.00
7480;BME280;3781;42.272;22.658;2023-03-23T03:48:02;94585.53;;;2.50;100.00
7480;BME280;3781;42.272;22.658;2023-03-23T03:50:28;94579.09;;;2.59;100.00
7480;BME280;3781;42.272;22.658;2023-03-23T03:52:57;94573.81;;;2.76;100.00
7480;BME280;3781;42.272;22.658;2023-03-23T03:55:24;94549.75;;;2.78;100.00
7480;BME280;3781;42.272;22.658;2023-03-23T03:57:53;94555.94;;;2.60;100.00
7480;BME280;3781;42.272;22.658;2023-03-23T04:00:20;94560.84;;;2.49;100.00
7480;BME280;3781;42.272;22.658;2023-03-23T04:02:49;94575.19;;;2.67;100.00
7480;BME280;3781;42.272;22.658;2023-03-23T04:05:20;94586.97;;;2.40;100.00
7480;BME280;3781;42.272;22.658;2023-03-23T04:07:48;94583.25;;;2.46;100.00
7480;BME280;3781;42.272;22.658;2023-03-23T04:10:19;94587.69;;;2.58;100.00
7480;BME280;3781;42.272;22.658;2023-03-23T04:12:47;94590.19;;;2.73;100.00
7480;BME280;3781;42.272;22.658;2023-03-23T04:15:14;94592.88;;;2.86;100.00
7480;BME280;3781;42.272;22.658;2023-03-23T04:17:41;94588.78;;;2.97;100.00
7480;BME280;3781;42.272;22.658;2023-03-23T04:20:09;94585.47;;;3.10;100.00
7480;BME280;3781;42.272;22.658;2023-03-23T04:22:42;94586.78;;;3.17;100.00
7480;BME280;3781;42.272;22.658;2023-03-23T04:25:11;94588.63;;;3.15;100.00
7480;BME280;3781;42.272;22.658;2023-03-23T04:27:39;94586.03;;;3.29;100.00
7480;BME280;3781;42.272;22.658;2023-03-23T04:30:09;94591.16;;;3.29;100.00
7480;BME280;3781;42.272;22.658;2023-03-23T04:32:37;94585.88;;;3.32;100.00
7480;BME280;3781;42.272;22.658;2023-03-23T04:38:39;94599.59;;;3.31;100.00
7480;BME280;3781;42.272;22.658;2023-03-23T04:41:06;94597.94;;;3.16;100.00
7480;BME280;3781;42.272;22.658;2023-03-23T04:43:34;94587.84;;;2.98;100.00
7480;BME280;3781;42.272;22.658;2023-03-23T04:46:07;94578.13;;;2.89;100.00
7480;BME280;3781;42.272;22.658;2023-03-23T04:48:35;94597.03;;;3.17;100.00
7480;BME280;3781;42.272;22.658;2023-03-23T04:51:05;94598.97;;;3.27;100.00
7480;BME280;3781;42.272;22.658;2023-03-23T04:53:32;94591.75;;;3.20;100.00
7480;BME280;3781;42.272;22.658;2023-03-23T04:55:59;94597.94;;;3.16;100.00
7480;BME280;3781;42.272;22.658;2023-03-23T04:58:27;94600.72;;;3.13;100.00
7480;BME280;3781;42.272;22.658;2023-03-23T05:00:56;94602.75;;;3.22;100.00
7480;BME280;3781;42.272;22.658;2023-03-23T05:03:23;94602.41;;;2.98;100.00
7480;BME280;3781;42.272;22.658;2023-03-23T05:05:50;94617.16;;;2.94;100.00
7480;BME280;3781;42.272;22.658;2023-03-23T05:08:19;94613.50;;;2.98;100.00
7480;BME280;3781;42.272;22.658;2023-03-23T05:10:56;94596.53;;;2.82;100.00
7480;BME280;3781;42.272;22.658;2023-03-23T05:13:23;94614.16;;;3.02;100.00
7480;BME280;3781;42.272;22.658;2023-03-23T05:15:50;94621.16;;;3.28;100.00
7480;BME280;3781;42.272;22.658;2023-03-23T05:18:18;94615.00;;;3.45;100.00
7480;BME280;3781;42.272;22.658;2023-03-23T05:20:46;94593.75;;;3.43;100.00
7480;BME280;3781;42.272;22.658;2023-03-23T05:23:14;94606.00;;;3.66;100.00
7480;BME280;3781;42.272;22.658;2023-03-23T05:25:41;94609.19;;;3.98;100.00
7480;BME280;3781;42.272;22.658;2023-03-23T05:28:09;94620.97;;;4.28;100.00
7480;BME280;3781;42.272;22.658;2023-03-23T05:30:38;94625.91;;;4.58;100.00
7480;BME280;3781;42.272;22.658;2023-03-23T05:33:05;94609.03;;;4.67;100.00
7480;BME280;3781;42.272;22.658;2023-03-23T05:35:34;94610.31;;;4.74;100.00
7480;BME280;3781;42.272;22.658;2023-03-23T05:38:01;94606.47;;;4.67;100.00
7480;BME280;3781;42.272;22.658;2023-03-23T05:40:28;94631.81;;;4.85;100.00
7480;BME280;3781;42.272;22.658;2023-03-23T05:42:55;94624.47;;;4.40;100.00
7480;BME280;3781;42.272;22.658;2023-03-23T05:45:24;94626.31;;;4.65;100.00
7480;BME280;3781;42.272;22.658;2023-03-23T05:47:51;94643.78;;;4.99;100.00
7480;BME280;3781;42.272;22.658;2023-03-23T05:50:18;94616.97;;;5.41;100.00
7480;BME280;3781;42.272;22.658;2023-03-23T05:52:46;94626.72;;;5.48;100.00
7480;BME280;3781;42.272;22.658;2023-03-23T05:55:14;94647.13;;;5.76;100.00
7480;BME280;3781;42.272;22.658;2023-03-23T05:57:40;94652.72;;;5.95;100.00
7480;BME280;3781;42.272;22.658;2023-03-23T06:00:08;94655.19;;;5.97;100.00
7480;BME280;3781;42.272;22.658;2023-03-23T06:02:46;94653.13;;;5.89;100.00
7480;BME280;3781;42.272;22.658;2023-03-23T06:05:13;94635.63;;;5.57;100.00
7480;BME280;3781;42.272;22.658;2023-03-23T06:07:41;94655.41;;;5.56;100.00
7480;BME280;3781;42.272;22.658;2023-03-23T06:10:10;94665.88;;;5.28;100.00
7480;BME280;3781;42.272;22.658;2023-03-23T06:12:38;94661.94;;;5.10;100.00
7480;BME280;3781;42.272;22.658;2023-03-23T06:15:06;94640.09;;;4.64;100.00
7480;BME280;3781;42.272;22.658;2023-03-23T06:17:34;94660.72;;;4.49;100.00
7480;BME280;3781;42.272;22.658;2023-03-23T06:20:01;94658.59;;;4.56;100.00
7480;BME280;3781;42.272;22.658;2023-03-23T06:22:34;94664.91;;;4.65;100.00
7480;BME280;3781;42.272;22.658;2023-03-23T06:25:01;94650.97;;;4.94;100.00
7480;BME280;3781;42.272;22.658;2023-03-23T06:27:29;94642.38;;;5.07;100.00
7480;BME280;3781;42.272;22.658;2023-03-23T06:29:56;94654.97;;;5.87;100.00
7480;BME280;3781;42.272;22.658;2023-03-23T06:32:24;94655.78;;;6.73;100.00
7480;BME280;3781;42.272;22.658;2023-03-23T06:34:52;94666.22;;;8.09;100.00
7480;BME280;3781;42.272;22.658;2023-03-23T06:37:18;94667.56;;;9.11;100.00
7480;BME280;3781;42.272;22.658;2023-03-23T06:39:46;94668.91;;;9.88;100.00
7480;BME280;3781;42.272;22.658;2023-03-23T06:42:13;94673.38;;;10.67;100.00
7480;BME280;3781;42.272;22.658;2023-03-23T06:44:41;94680.03;;;11.76;100.00
7480;BME280;3781;42.272;22.658;2023-03-23T06:47:08;94663.84;;;11.82;94.96
7480;BME280;3781;42.272;22.658;2023-03-23T06:49:35;94681.59;;;11.96;90.75
7480;BME280;3781;42.272;22.658;2023-03-23T06:52:02;94677.78;;;12.00;91.90
7480;BME280;3781;42.272;22.658;2023-03-23T06:54:29;94678.63;;;11.82;90.55
7480;BME280;3781;42.272;22.658;2023-03-23T06:56:56;94691.94;;;11.50;93.15
7480;BME280;3781;42.272;22.658;2023-03-23T06:59:23;94687.81;;;11.19;98.88
7480;BME280;3781;42.272;22.658;2023-03-23T07:01:51;94683.75;;;10.77;100.00
7480;BME280;3781;42.272;22.658;2023-03-23T07:04:18;94689.75;;;10.28;100.00
7480;BME280;3781;42.272;22.658;2023-03-23T07:06:46;94688.34;;;9.73;100.00
7480;BME280;3781;42.272;22.658;2023-03-23T07:09:13;94685.34;;;9.36;100.00
7480;BME280;3781;42.272;22.658;2023-03-23T07:11:40;94684.28;;;9.39;100.00
7480;BME280;3781;42.272;22.658;2023-03-23T07:14:07;94681.59;;;9.61;100.00
7480;BME280;3781;42.272;22.658;2023-03-23T07:16:34;94685.50;;;9.76;100.00
7480;BME280;3781;42.272;22.658;2023-03-23T07:19:02;94682.00;;;9.66;100.00
7480;BME280;3781;42.272;22.658;2023-03-23T07:21:29;94664.38;;;9.60;100.00
7480;BME280;3781;42.272;22.658;2023-03-23T07:23:55;94672.19;;;9.90;100.00
7480;BME280;3781;42.272;22.658;2023-03-23T07:26:22;94688.41;;;10.33;100.00
7480;BME280;3781;42.272;22.658;2023-03-23T07:28:49;94687.91;;;10.98;100.00
7480;BME280;3781;42.272;22.658;2023-03-23T07:31:16;94693.97;;;11.37;100.00
7480;BME280;3781;42.272;22.658;2023-03-23T07:33:42;94691.19;;;12.05;99.67
7480;BME280;3781;42.272;22.658;2023-03-23T07:36:11;94707.47;;;12.54;94.84
7480;BME280;3781;42.272;22.658;2023-03-23T07:38:38;94699.34;;;13.56;89.36
7480;BME280;3781;42.272;22.658;2023-03-23T07:41:05;94708.44;;;13.70;85.17
7480;BME280;3781;42.272;22.658;2023-03-23T07:43:32;94701.00;;;14.26;78.83
7480;BME280;3781;42.272;22.658;2023-03-23T07:45:59;94714.75;;;14.28;73.37
7480;BME280;3781;42.272;22.658;2023-03-23T07:48:26;94708.78;;;14.69;73.02
7480;BME280;3781;42.272;22.658;2023-03-23T07:50:53;94722.81;;;15.52;70.32
7480;BME280;3781;42.272;22.658;2023-03-23T07:53:21;94716.28;;;17.38;62.25
7480;BME280;3781;42.272;22.658;2023-03-23T07:55:49;94723.66;;;18.56;58.46
7480;BME280;3781;42.272;22.658;2023-03-23T07:58:16;94726.63;;;19.55;53.67
7480;BME280;3781;42.272;22.658;2023-03-23T08:00:44;94720.41;;;18.83;53.50
7480;BME280;3781;42.272;22.658;2023-03-23T08:03:11;94718.88;;;18.74;54.34
7480;BME280;3781;42.272;22.658;2023-03-23T08:05:38;94725.50;;;18.85;52.38
7480;BME280;3781;42.272;22.658;2023-03-23T08:08:07;94714.78;;;19.66;51.53
7480;BME280;3781;42.272;22.658;2023-03-23T08:10:36;94721.00;;;20.43;49.35
7480;BME280;3781;42.272;22.658;2023-03-23T08:13:03;94710.75;;;20.26;49.64
7480;BME280;3781;42.272;22.658;2023-03-23T08:15:31;94719.78;;;19.61;51.17
7480;BME280;3781;42.272;22.658;2023-03-23T08:18:03;94721.34;;;20.33;49.38
7480;BME280;3781;42.272;22.658;2023-03-23T08:20:31;94716.44;;;20.30;48.63
7480;BME280;3781;42.272;22.658;2023-03-23T08:22:58;94713.47;;;21.36;46.44
7480;BME280;3781;42.272;22.658;2023-03-23T08:25:25;94721.69;;;22.40;43.56
7480;BME280;3781;42.272;22.658;2023-03-23T08:27:54;94711.25;;;21.93;45.23
7480;BME280;3781;42.272;22.658;2023-03-23T08:30:21;94720.25;;;22.71;42.67
7480;BME280;3781;42.272;22.658;2023-03-23T08:32:50;94715.97;;;22.96;40.88
7480;BME280;3781;42.272;22.658;2023-03-23T08:35:18;94719.81;;;22.08;42.18
7480;BME280;3781;42.272;22.658;2023-03-23T08:37:45;94719.84;;;22.47;40.96
7480;BME280;3781;42.272;22.658;2023-03-23T08:40:17;94707.66;;;22.66;38.78
7480;BME280;3781;42.272;22.658;2023-03-23T08:42:46;94715.28;;;23.40;37.19
7480;BME280;3781;42.272;22.658;2023-03-23T08:45:17;94713.09;;;23.04;38.53
7480;BME280;3781;42.272;22.658;2023-03-23T08:47:45;94710.69;;;23.53;38.31
7480;BME280;3781;42.272;22.658;2023-03-23T08:50:16;94703.41;;;24.73;35.26
7480;BME280;3781;42.272;22.658;2023-03-23T08:52:43;94696.34;;;25.28;32.39
7480;BME280;3781;42.272;22.658;2023-03-23T08:55:10;94708.41;;;24.39;33.41
7480;BME280;3781;42.272;22.658;2023-03-23T08:57:37;94705.91;;;24.93;33.08
7480;BME280;3781;42.272;22.658;2023-03-23T09:00:05;94703.38;;;23.93;34.44
7480;BME280;3781;42.272;22.658;2023-03-23T09:02:41;94696.50;;;21.71;36.06
7480;BME280;3781;42.272;22.658;2023-03-23T09:05:09;94694.97;;;21.90;39.08
7480;BME280;3781;42.272;22.658;2023-03-23T09:07:37;94690.09;;;22.98;36.82
7480;BME280;3781;42.272;22.658;2023-03-23T09:10:04;94702.75;;;22.70;35.66
7480;BME280;3781;42.272;22.658;2023-03-23T09:12:31;94679.25;;;24.57;33.68
7480;BME280;3781;42.272;22.658;2023-03-23T09:14:58;94701.41;;;24.69;32.63
7480;BME280;3781;42.272;22.658;2023-03-23T09:17:26;94693.66;;;25.65;31.70
7480;BME280;3781;42.272;22.658;2023-03-23T09:19:54;94693.97;;;24.28;32.96
7480;BME280;3781;42.272;22.658;2023-03-23T09:22:21;94700.03;;;24.60;32.65
7480;BME280;3781;42.272;22.658;2023-03-23T09:24:49;94700.00;;;24.91;30.71
7480;BME280;3781;42.272;22.658;2023-03-23T09:27:17;94686.97;;;25.92;31.30
7480;BME280;3781;42.272;22.658;2023-03-23T09:29:44;94693.19;;;23.52;33.56
7480;BME280;3781;42.272;22.658;2023-03-23T09:32:14;94682.22;;;21.46;36.16
7480;BME280;3781;42.272;22.658;2023-03-23T09:34:41;94676.56;;;20.74;38.50
7480;BME280;3781;42.272;22.658;2023-03-23T09:37:09;94678.56;;;20.65;38.27
7480;BME280;3781;42.272;22.658;2023-03-23T09:39:38;94675.13;;;21.06;38.58
7480;BME280;3781;42.272;22.658;2023-03-23T09:42:18;94671.56;;;20.85;38.92
7480;BME280;3781;42.272;22.658;2023-03-23T09:45:00;94673.63;;;21.31;38.46
7480;BME280;3781;42.272;22.658;2023-03-23T09:47:35;94671.84;;;21.38;37.25
7480;BME280;3781;42.272;22.658;2023-03-23T09:50:09;94673.63;;;22.30;35.73
7480;BME280;3781;42.272;22.658;2023-03-23T09:52:42;94670.78;;;23.48;32.82
7480;BME280;3781;42.272;22.658;2023-03-23T09:55:13;94666.63;;;23.96;33.11
7480;BME280;3781;42.272;22.658;2023-03-23T09:57:45;94667.97;;;25.40;31.85
7480;BME280;3781;42.272;22.658;2023-03-23T10:00:18;94675.06;;;25.65;30.36
7480;BME280;3781;42.272;22.658;2023-03-23T10:02:51;94652.50;;;24.03;33.42
7480;BME280;3781;42.272;22.658;2023-03-23T10:05:29;94656.13;;;25.73;31.66
7480;BME280;3781;42.272;22.658;2023-03-23T10:07:59;94659.94;;;26.48;31.13
7480;BME280;3781;42.272;22.658;2023-03-23T10:10:45;94652.31;;;26.10;30.99
7480;BME280;3781;42.272;22.658;2023-03-23T10:13:22;94651.69;;;26.26;31.55
7480;BME280;3781;42.272;22.658;2023-03-23T10:15:54;94652.75;;;23.63;32.52
7480;BME280;3781;42.272;22.658;2023-03-23T10:18:26;94648.56;;;23.80;32.75
7480;BME280;3781;42.272;22.658;2023-03-23T10:20:56;94645.75;;;23.69;34.29
7480;BME280;3781;42.272;22.658;2023-03-23T10:23:51;94640.22;;;23.39;33.39
7480;BME280;3781;42.272;22.658;2023-03-23T10:26:31;94643.31;;;22.66;33.78
7480;BME280;3781;42.272;22.658;2023-03-23T10:29:17;94628.66;;;22.04;35.46
7480;BME280;3781;42.272;22.658;2023-03-23T10:31:48;94592.81;;;21.82;33.74
7480;BME280;3781;42.272;22.658;2023-03-23T10:34:20;94633.09;;;22.76;33.81
7480;BME280;3781;42.272;22.658;2023-03-23T10:36:55;94625.41;;;23.94;32.30
7480;BME280;3781;42.272;22.658;2023-03-23T10:39:29;94627.16;;;22.80;33.65
7480;BME280;3781;42.272;22.658;2023-03-23T10:42:00;94631.78;;;24.18;31.67
7480;BME280;3781;42.272;22.658;2023-03-23T10:44:32;94618.75;;;23.03;32.79
7480;BME280;3781;42.272;22.658;2023-03-23T10:47:01;94621.50;;;21.78;35.22
7480;BME280;3781;42.272;22.658;2023-03-23T10:49:33;94617.25;;;22.36;33.46
7480;BME280;3781;42.272;22.658;2023-03-23T10:52:27;94614.38;;;23.21;32.83
7480;BME280;3781;42.272;22.658;2023-03-23T10:54:58;94614.84;;;22.02;33.27
7480;BME280;3781;42.272;22.658;2023-03-23T10:57:29;94614.59;;;23.20;31.27
7480;BME280;3781;42.272;22.658;2023-03-23T11:00:01;94620.19;;;23.50;31.75
7480;BME280;3781;42.272;22.658;2023-03-23T11:02:36;94604.34;;;23.37;32.78
7480;BME280;3781;42.272;22.658;2023-03-23T11:05:12;94614.31;;;24.04;32.33
7480;BME280;3781;42.272;22.658;2023-03-23T11:07:40;94613.09;;;24.06;31.45
7480;BME280;3781;42.272;22.658;2023-03-23T11:10:22;94613.22;;;24.60;30.92
7480;BME280;3781;42.272;22.658;2023-03-23T11:12:49;94607.84;;;24.67;29.43
7480;BME280;3781;42.272;22.658;2023-03-23T11:15:25;94591.53;;;24.21;31.00
7480;BME280;3781;42.272;22.658;2023-03-23T11:17:57;94588.81;;;24.03;32.74
7480;BME280;3781;42.272;22.658;2023-03-23T11:20:25;94603.97;;;24.45;31.51
7480;BME280;3781;42.272;22.658;2023-03-23T11:22:54;94593.41;;;25.17;30.13
7480;BME280;3781;42.272;22.658;2023-03-23T11:25:22;94590.19;;;25.75;29.86
7480;BME280;3781;42.272;22.658;2023-03-23T11:27:50;94597.03;;;26.58;27.87
7480;BME280;3781;42.272;22.658;2023-03-23T11:30:23;94599.81;;;26.63;28.65
7480;BME280;3781;42.272;22.658;2023-03-23T11:32:51;94589.72;;;25.78;28.63
7480;BME280;3781;42.272;22.658;2023-03-23T11:35:21;94590.78;;;26.41;27.40
7480;BME280;3781;42.272;22.658;2023-03-23T11:37:51;94588.00;;;26.36;27.83
7480;BME280;3781;42.272;22.658;2023-03-23T11:40:22;94584.00;;;26.04;26.62
7480;BME280;3781;42.272;22.658;2023-03-23T11:42:57;94585.16;;;26.08;27.06
7480;BME280;3781;42.272;22.658;2023-03-23T11:45:31;94562.72;;;25.51;26.37
7480;BME280;3781;42.272;22.658;2023-03-23T11:48:14;94568.91;;;24.97;27.52
7480;BME280;3781;42.272;22.658;2023-03-23T11:50:48;94552.00;;;24.13;29.67
7480;BME280;3781;42.272;22.658;2023-03-23T11:53:24;94555.31;;;23.83;31.57
7480;BME280;3781;42.272;22.658;2023-03-23T11:56:15;94553.56;;;23.95;30.14
7480;BME280;3781;42.272;22.658;2023-03-23T11:58:44;94552.22;;;23.62;30.05
7480;BME280;3781;42.272;22.658;2023-03-23T12:01:19;94549.66;;;23.49;30.71
7480;BME280;3781;42.272;22.658;2023-03-23T12:04:07;94541.16;;;23.89;29.94
7480;BME280;3781;42.272;22.658;2023-03-23T12:06:42;94521.81;;;24.14;29.69
7480;BME280;3781;42.272;22.658;2023-03-23T12:09:22;94540.22;;;24.09;29.26
7480;BME280;3781;42.272;22.658;2023-03-23T12:11:57;94524.91;;;24.47;29.27
7480;BME280;3781;42.272;22.658;2023-03-23T12:14:31;94550.94;;;25.40;29.61
7480;BME280;3781;42.272;22.658;2023-03-23T12:17:10;94555.28;;;25.23;27.85
7480;BME280;3781;42.272;22.658;2023-03-23T12:19:45;94549.38;;;25.21;27.70
7480;BME280;3781;42.272;22.658;2023-03-23T12:22:25;94542.78;;;23.90;28.45
7480;BME280;3781;42.272;22.658;2023-03-23T12:25:05;94538.44;;;24.21;28.90
7480;BME280;3781;42.272;22.658;2023-03-23T12:27:41;94539.47;;;24.44;28.69
7480;BME280;3781;42.272;22.658;2023-03-23T12:30:21;94548.53;;;23.87;28.78
7480;BME280;3781;42.272;22.658;2023-03-23T12:33:16;94544.22;;;25.26;28.54
7480;BME280;3781;42.272;22.658;2023-03-23T12:35:52;94546.78;;;26.50;27.08
7480;BME280;3781;42.272;22.658;2023-03-23T12:38:38;94529.03;;;25.45;26.38
7480;BME280;3781;42.272;22.658;2023-03-23T12:41:16;94532.06;;;26.48;26.61
7480;BME280;3781;42.272;22.658;2023-03-23T12:43:51;94529.53;;;27.44;26.09
7480;BME280;3781;42.272;22.658;2023-03-23T12:49:29;94528.06;;;28.14;24.66
7480;BME280;3781;42.272;22.658;2023-03-23T12:52:00;94527.41;;;27.74;25.07
7480;BME280;3781;42.272;22.658;2023-03-23T12:54:32;94526.63;;;27.06;24.74
7480;BME280;3781;42.272;22.658;2023-03-23T12:57:05;94522.44;;;26.58;25.44
7480;BME280;3781;42.272;22.658;2023-03-23T12:59:41;94521.66;;;26.23;25.87
7480;BME280;3781;42.272;22.658;2023-03-23T13:02:15;94519.47;;;26.32;25.59
7480;BME280;3781;42.272;22.658;2023-03-23T13:04:45;94522.16;;;27.96;24.10
7480;BME280;3781;42.272;22.658;2023-03-23T13:07:18;94499.44;;;29.08;23.50
7480;BME280;3781;42.272;22.658;2023-03-23T13:09:52;94516.19;;;28.77;22.75
7480;BME280;3781;42.272;22.658;2023-03-23T13:12:21;94493.97;;;28.98;22.89
7480;BME280;3781;42.272;22.658;2023-03-23T13:14:53;94509.94;;;29.90;22.88
7480;BME280;3781;42.272;22.658;2023-03-23T13:17:32;94510.19;;;30.20;21.51
7480;BME280;3781;42.272;22.658;2023-03-23T13:20:15;94503.59;;;29.42;22.13
7480;BME280;3781;42.272;22.658;2023-03-23T13:22:48;94496.75;;;27.93;23.76
7480;BME280;3781;42.272;22.658;2023-03-23T13:25:19;94502.25;;;26.85;24.21
7480;BME280;3781;42.272;22.658;2023-03-23T13:27:57;94482.31;;;28.27;23.31
7480;BME280;3781;42.272;22.658;2023-03-23T13:30:27;94487.34;;;26.61;24.99
7480;BME280;3781;42.272;22.658;2023-03-23T13:33:02;94457.63;;;27.21;24.47
7480;BME280;3781;42.272;22.658;2023-03-23T13:35:35;94492.22;;;29.08;23.12
7480;BME280;3781;42.272;22.658;2023-03-23T13:38:12;94492.78;;;29.86;21.74
7480;BME280;3781;42.272;22.658;2023-03-23T13:40:43;94492.66;;;29.75;21.50